sensor_id;sensor_type;location;lat;lon;timestamp;P1;durP1;ratioP1;P2;durP2;ratioP2
15982;SDS011;14442;50.196;8.096;2023-11-19T00:00:24;2.53;;;0.70;;
15982;SDS011;14442;50.196;8.096;2023-11-19T00:02:50;1.03;;;0.40;;
15982;SDS011;14442;50.196;8.096;2023-11-19T00:05:17;1.97;;;0.40;;
15982;SDS011;14442;50.196;8.096;2023-11-19T00:07:45;1.33;;;0.40;;
15982;SDS011;14442;50.196;8.096;2023-11-19T00:10:12;0.77;;;0.30;;
15982;SDS011;14442;50.196;8.096;2023-11-19T00:12:43;0.57;;;0.20;;
15982;SDS011;14442;50.196;8.096;2023-11-19T00:15:11;1.00;;;0.40;;
15982;SDS011;14442;50.196;8.096;2023-11-19T00:17:39;0.30;;;0.30;;
15982;SDS011;14442;50.196;8.096;2023-11-19T00:20:09;1.23;;;0.50;;
15982;SDS011;14442;50.196;8.096;2023-11-19T00:22:37;0.80;;;0.20;;
15982;SDS011;14442;50.196;8.096;2023-11-19T00:25:06;2.43;;;0.60;;
15982;SDS011;14442;50.196;8.096;2023-11-19T00:27:33;1.63;;;0.30;;
15982;SDS011;14442;50.196;8.096;2023-11-19T00:30:00;0.33;;;0.23;;
15982;SDS011;14442;50.196;8.096;2023-11-19T00:32:26;0.77;;;0.20;;
15982;SDS011;14442;50.196;8.096;2023-11-19T00:34:54;0.27;;;0.20;;
15982;SDS011;14442;50.196;8.096;2023-11-19T00:37:21;0.67;;;0.47;;
15982;SDS011;14442;50.196;8.096;2023-11-19T00:39:47;0.97;;;0.30;;
15982;SDS011;14442;50.196;8.096;2023-11-19T00:42:15;1.73;;;0.30;;
15982;SDS011;14442;50.196;8.096;2023-11-19T00:44:42;0.60;;;0.30;;
15982;SDS011;14442;50.196;8.096;2023-11-19T00:47:09;0.83;;;0.20;;
15982;SDS011;14442;50.196;8.096;2023-11-19T00:49:36;0.57;;;0.20;;
15982;SDS011;14442;50.196;8.096;2023-11-19T00:52:03;0.30;;;0.20;;
15982;SDS011;14442;50.196;8.096;2023-11-19T00:54:31;1.77;;;0.30;;
15982;SDS011;14442;50.196;8.096;2023-11-19T00:56:58;4.10;;;0.33;;
15982;SDS011;14442;50.196;8.096;2023-11-19T00:59:27;0.60;;;0.10;;
15982;SDS011;14442;50.196;8.096;2023-11-19T01:01:54;1.43;;;0.40;;
15982;SDS011;14442;50.196;8.096;2023-11-19T01:04:21;1.10;;;0.20;;
15982;SDS011;14442;50.196;8.096;2023-11-19T01:06:49;1.43;;;0.27;;
15982;SDS011;14442;50.196;8.096;2023-11-19T01:09:16;0.53;;;0.20;;
15982;SDS011;14442;50.196;8.096;2023-11-19T01:11:42;1.87;;;0.40;;
15982;SDS011;14442;50.196;8.096;2023-11-19T01:14:09;0.97;;;0.20;;
15982;SDS011;14442;50.196;8.096;2023-11-19T01:16:37;1.50;;;0.20;;
15982;SDS011;14442;50.196;8.096;2023-11-19T01:19:04;2.37;;;0.20;;
15982;SDS011;14442;50.196;8.096;2023-11-19T01:21:31;0.20;;;0.10;;
15982;SDS011;14442;50.196;8.096;2023-11-19T01:23:58;0.80;;;0.30;;
15982;SDS011;14442;50.196;8.096;2023-11-19T01:26:25;0.20;;;0.13;;
15982;SDS011;14442;50.196;8.096;2023-11-19T01:28:51;0.80;;;0.20;;
15982;SDS011;14442;50.196;8.096;2023-11-19T01:31:18;0.10;;;0.10;;
15982;SDS011;14442;50.196;8.096;2023-11-19T01:33:46;0.10;;;0.10;;
15982;SDS011;14442;50.196;8.096;2023-11-19T01:36:13;0.83;;;0.13;;
15982;SDS011;14442;50.196;8.096;2023-11-19T01:38:40;0.83;;;0.20;;
15982;SDS011;14442;50.196;8.096;2023-11-19T01:41:07;0.70;;;0.30;;
15982;SDS011;14442;50.196;8.096;2023-11-19T01:43:34;0.20;;;0.10;;
15982;SDS011;14442;50.196;8.096;2023-11-19T01:46:01;0.63;;;0.10;;
15982;SDS011;14442;50.196;8.096;2023-11-19T01:48:29;0.10;;;0.10;;
15982;SDS011;14442;50.196;8.096;2023-11-19T01:50:57;0.10;;;0.10;;
15982;SDS011;14442;50.196;8.096;2023-11-19T01:53:24;1.03;;;0.10;;
15982;SDS011;14442;50.196;8.096;2023-11-19T01:55:51;0.13;;;0.10;;
15982;SDS011;14442;50.196;8.096;2023-11-19T01:58:18;0.50;;;0.10;;
15982;SDS011;14442;50.196;8.096;2023-11-19T02:00:45;0.20;;;0.13;;
15982;SDS011;14442;50.196;8.096;2023-11-19T02:03:12;1.03;;;0.23;;
15982;SDS011;14442;50.196;8.096;2023-11-19T02:05:41;0.20;;;0.20;;
15982;SDS011;14442;50.196;8.096;2023-11-19T02:08:09;0.40;;;0.10;;
15982;SDS011;14442;50.196;8.096;2023-11-19T02:10:38;0.10;;;0.10;;
15982;SDS011;14442;50.196;8.096;2023-11-19T02:13:05;0.23;;;0.13;;
15982;SDS011;14442;50.196;8.096;2023-11-19T02:15:32;0.03;;;0.03;;
15982;SDS011;14442;50.196;8.096;2023-11-19T02:20:44;0.20;;;0.10;;
15982;SDS011;14442;50.196;8.096;2023-11-19T02:23:12;0.40;;;0.10;;
15982;SDS011;14442;50.196;8.096;2023-11-19T02:25:40;0.23;;;0.10;;
15982;SDS011;14442;50.196;8.096;2023-11-19T02:28:08;0.50;;;0.20;;
15982;SDS011;14442;50.196;8.096;2023-11-19T02:30:37;0.10;;;0.10;;
15982;SDS011;14442;50.196;8.096;2023-11-19T02:33:03;0.10;;;0.10;;
15982;SDS011;14442;50.196;8.096;2023-11-19T02:35:31;0.10;;;0.10;;
15982;SDS011;14442;50.196;8.096;2023-11-19T02:37:58;0.00;;;0.00;;
15982;SDS011;14442;50.196;8.096;2023-11-19T02:40:25;0.20;;;0.10;;
15982;SDS011;14442;50.196;8.096;2023-11-19T02:42:52;0.10;;;0.07;;
15982;SDS011;14442;50.196;8.096;2023-11-19T02:45:21;0.13;;;0.10;;
15982;SDS011;14442;50.196;8.096;2023-11-19T02:47:48;0.10;;;0.10;;
15982;SDS011;14442;50.196;8.096;2023-11-19T02:50:15;0.10;;;0.10;;
15982;SDS011;14442;50.196;8.096;2023-11-19T02:52:43;0.20;;;0.03;;
15982;SDS011;14442;50.196;8.096;2023-11-19T02:55:11;0.10;;;0.10;;
15982;SDS011;14442;50.196;8.096;2023-11-19T02:57:39;0.30;;;0.10;;
15982;SDS011;14442;50.196;8.096;2023-11-19T03:00:11;0.10;;;0.10;;
15982;SDS011;14442;50.196;8.096;2023-11-19T03:02:40;0.00;;;0.00;;
15982;SDS011;14442;50.196;8.096;2023-11-19T03:05:11;1.10;;;0.10;;
15982;SDS011;14442;50.196;8.096;2023-11-19T03:07:39;0.23;;;0.00;;
15982;SDS011;14442;50.196;8.096;2023-11-19T03:10:08;0.10;;;0.03;;
15982;SDS011;14442;50.196;8.096;2023-11-19T03:12:38;0.00;;;0.00;;
15982;SDS011;14442;50.196;8.096;2023-11-19T03:15:06;0.00;;;0.00;;
15982;SDS011;14442;50.196;8.096;2023-11-19T03:17:34;0.10;;;0.10;;
15982;SDS011;14442;50.196;8.096;2023-11-19T03:20:03;0.03;;;0.03;;
15982;SDS011;14442;50.196;8.096;2023-11-19T03:22:31;0.10;;;0.10;;
15982;SDS011;14442;50.196;8.096;2023-11-19T03:24:59;0.10;;;0.00;;
15982;SDS011;14442;50.196;8.096;2023-11-19T03:27:26;0.07;;;0.07;;
15982;SDS011;14442;50.196;8.096;2023-11-19T03:29:52;0.57;;;0.20;;
15982;SDS011;14442;50.196;8.096;2023-11-19T03:32:19;0.00;;;0.00;;
15982;SDS011;14442;50.196;8.096;2023-11-19T03:34:46;0.10;;;0.10;;
15982;SDS011;14442;50.196;8.096;2023-11-19T03:37:14;0.10;;;0.10;;
15982;SDS011;14442;50.196;8.096;2023-11-19T03:39:42;0.00;;;0.00;;
15982;SDS011;14442;50.196;8.096;2023-11-19T03:42:09;0.00;;;0.00;;
15982;SDS011;14442;50.196;8.096;2023-11-19T03:44:37;0.10;;;0.10;;
15982;SDS011;14442;50.196;8.096;2023-11-19T03:47:03;0.10;;;0.10;;
15982;SDS011;14442;50.196;8.096;2023-11-19T03:49:31;0.30;;;0.10;;
15982;SDS011;14442;50.196;8.096;2023-11-19T03:51:58;0.10;;;0.10;;
15982;SDS011;14442;50.196;8.096;2023-11-19T03:54:26;0.10;;;0.10;;
15982;SDS011;14442;50.196;8.096;2023-11-19T03:56:53;0.03;;;0.03;;
15982;SDS011;14442;50.196;8.096;2023-11-19T03:59:20;0.43;;;0.10;;
15982;SDS011;14442;50.196;8.096;2023-11-19T04:01:46;0.10;;;0.10;;
15982;SDS011;14442;50.196;8.096;2023-11-19T04:04:13;0.10;;;0.10;;
15982;SDS011;14442;50.196;8.096;2023-11-19T04:06:40;0.00;;;0.00;;
15982;SDS011;14442;50.196;8.096;2023-11-19T04:09:07;0.10;;;0.00;;
15982;SDS011;14442;50.196;8.096;2023-11-19T04:11:35;0.10;;;0.10;;
15982;SDS011;14442;50.196;8.096;2023-11-19T04:14:02;0.00;;;0.00;;
15982;SDS011;14442;50.196;8.096;2023-11-19T04:16:28;0.00;;;0.00;;
15982;SDS011;14442;50.196;8.096;2023-11-19T04:18:55;0.20;;;0.00;;
15982;SDS011;14442;50.196;8.096;2023-11-19T04:21:22;0.10;;;0.10;;
15982;SDS011;14442;50.196;8.096;2023-11-19T04:23:49;0.10;;;0.10;;
15982;SDS011;14442;50.196;8.096;2023-11-19T04:26:15;0.00;;;0.00;;
15982;SDS011;14442;50.196;8.096;2023-11-19T04:28:43;0.00;;;0.00;;
15982;SDS011;14442;50.196;8.096;2023-11-19T04:31:10;0.10;;;0.10;;
15982;SDS011;14442;50.196;8.096;2023-11-19T04:33:37;0.07;;;0.07;;
15982;SDS011;14442;50.196;8.096;2023-11-19T04:36:04;0.10;;;0.10;;
15982;SDS011;14442;50.196;8.096;2023-11-19T04:38:32;0.10;;;0.10;;
15982;SDS011;14442;50.196;8.096;2023-11-19T04:40:59;0.00;;;0.00;;
15982;SDS011;14442;50.196;8.096;2023-11-19T04:43:27;0.00;;;0.00;;
15982;SDS011;14442;50.196;8.096;2023-11-19T04:45:55;0.00;;;0.00;;
15982;SDS011;14442;50.196;8.096;2023-11-19T04:48:22;0.00;;;0.00;;
15982;SDS011;14442;50.196;8.096;2023-11-19T04:50:49;0.03;;;0.00;;
15982;SDS011;14442;50.196;8.096;2023-11-19T04:53:17;0.03;;;0.03;;
15982;SDS011;14442;50.196;8.096;2023-11-19T04:55:44;0.10;;;0.00;;
15982;SDS011;14442;50.196;8.096;2023-11-19T04:58:11;0.27;;;0.10;;
15982;SDS011;14442;50.196;8.096;2023-11-19T05:00:37;0.00;;;0.00;;
15982;SDS011;14442;50.196;8.096;2023-11-19T05:03:05;0.00;;;0.00;;
15982;SDS011;14442;50.196;8.096;2023-11-19T05:05:33;0.00;;;0.00;;
15982;SDS011;14442;50.196;8.096;2023-11-19T05:08:00;0.00;;;0.00;;
15982;SDS011;14442;50.196;8.096;2023-11-19T05:10:26;0.00;;;0.00;;
15982;SDS011;14442;50.196;8.096;2023-11-19T05:12:53;0.00;;;0.00;;
15982;SDS011;14442;50.196;8.096;2023-11-19T05:15:21;0.00;;;0.00;;
15982;SDS011;14442;50.196;8.096;2023-11-19T05:17:49;0.00;;;0.00;;
15982;SDS011;14442;50.196;8.096;2023-11-19T05:20:17;0.00;;;0.00;;
15982;SDS011;14442;50.196;8.096;2023-11-19T05:22:43;0.10;;;0.10;;
15982;SDS011;14442;50.196;8.096;2023-11-19T05:25:10;0.00;;;0.00;;
15982;SDS011;14442;50.196;8.096;2023-11-19T05:27:37;0.00;;;0.00;;
15982;SDS011;14442;50.196;8.096;2023-11-19T05:30:04;0.10;;;0.10;;
15982;SDS011;14442;50.196;8.096;2023-11-19T05:32:33;0.00;;;0.00;;
15982;SDS011;14442;50.196;8.096;2023-11-19T05:35:00;0.03;;;0.03;;
15982;SDS011;14442;50.196;8.096;2023-11-19T05:37:28;0.00;;;0.00;;
15982;SDS011;14442;50.196;8.096;2023-11-19T05:39:55;0.00;;;0.00;;
15982;SDS011;14442;50.196;8.096;2023-11-19T05:42:22;0.00;;;0.00;;
15982;SDS011;14442;50.196;8.096;2023-11-19T05:44:49;1.03;;;0.10;;
15982;SDS011;14442;50.196;8.096;2023-11-19T05:47:17;0.00;;;0.00;;
15982;SDS011;14442;50.196;8.096;2023-11-19T05:49:43;0.00;;;0.00;;
15982;SDS011;14442;50.196;8.096;2023-11-19T05:52:10;0.00;;;0.00;;
15982;SDS011;14442;50.196;8.096;2023-11-19T05:54:38;0.00;;;0.00;;
15982;SDS011;14442;50.196;8.096;2023-11-19T05:57:05;0.00;;;0.00;;
15982;SDS011;14442;50.196;8.096;2023-11-19T05:59:34;0.00;;;0.00;;
15982;SDS011;14442;50.196;8.096;2023-11-19T06:02:01;0.00;;;0.00;;
15982;SDS011;14442;50.196;8.096;2023-11-19T06:04:28;0.00;;;0.00;;
15982;SDS011;14442;50.196;8.096;2023-11-19T06:06:55;0.90;;;0.00;;
15982;SDS011;14442;50.196;8.096;2023-11-19T06:09:21;0.10;;;0.00;;
15982;SDS011;14442;50.196;8.096;2023-11-19T06:11:50;0.07;;;0.00;;
15982;SDS011;14442;50.196;8.096;2023-11-19T06:14:17;0.00;;;0.00;;
15982;SDS011;14442;50.196;8.096;2023-11-19T06:16:44;0.00;;;0.00;;
15982;SDS011;14442;50.196;8.096;2023-11-19T06:19:11;0.00;;;0.00;;
15982;SDS011;14442;50.196;8.096;2023-11-19T06:21:38;0.00;;;0.00;;
15982;SDS011;14442;50.196;8.096;2023-11-19T06:24:04;0.00;;;0.00;;
15982;SDS011;14442;50.196;8.096;2023-11-19T06:26:31;0.00;;;0.00;;
15982;SDS011;14442;50.196;8.096;2023-11-19T06:29:00;0.00;;;0.00;;
15982;SDS011;14442;50.196;8.096;2023-11-19T06:31:26;0.00;;;0.00;;
15982;SDS011;14442;50.196;8.096;2023-11-19T06:33:53;0.27;;;0.00;;
15982;SDS011;14442;50.196;8.096;2023-11-19T06:36:20;0.10;;;0.00;;
15982;SDS011;14442;50.196;8.096;2023-11-19T06:38:46;0.00;;;0.00;;
15982;SDS011;14442;50.196;8.096;2023-11-19T06:41:13;0.00;;;0.00;;
15982;SDS011;14442;50.196;8.096;2023-11-19T06:43:40;0.00;;;0.00;;
15982;SDS011;14442;50.196;8.096;2023-11-19T06:46:15;0.00;;;0.00;;
15982;SDS011;14442;50.196;8.096;2023-11-19T06:48:42;0.10;;;0.10;;
15982;SDS011;14442;50.196;8.096;2023-11-19T06:51:09;0.00;;;0.00;;
15982;SDS011;14442;50.196;8.096;2023-11-19T06:53:35;0.10;;;0.00;;
15982;SDS011;14442;50.196;8.096;2023-11-19T06:56:02;0.10;;;0.10;;
15982;SDS011;14442;50.196;8.096;2023-11-19T06:58:31;0.00;;;0.00;;
15982;SDS011;14442;50.196;8.096;2023-11-19T07:00:59;1.10;;;0.00;;
15982;SDS011;14442;50.196;8.096;2023-11-19T07:03:27;0.00;;;0.00;;
15982;SDS011;14442;50.196;8.096;2023-11-19T07:05:54;0.30;;;0.10;;
15982;SDS011;14442;50.196;8.096;2023-11-19T07:08:21;0.00;;;0.00;;
15982;SDS011;14442;50.196;8.096;2023-11-19T07:10:48;0.00;;;0.00;;
15982;SDS011;14442;50.196;8.096;2023-11-19T07:13:14;0.10;;;0.00;;
15982;SDS011;14442;50.196;8.096;2023-11-19T07:15:41;0.00;;;0.00;;
15982;SDS011;14442;50.196;8.096;2023-11-19T07:18:08;0.00;;;0.00;;
15982;SDS011;14442;50.196;8.096;2023-11-19T07:20:37;0.20;;;0.00;;
15982;SDS011;14442;50.196;8.096;2023-11-19T07:23:05;0.00;;;0.00;;
15982;SDS011;14442;50.196;8.096;2023-11-19T07:25:31;0.17;;;0.00;;
15982;SDS011;14442;50.196;8.096;2023-11-19T07:28:00;0.00;;;0.00;;
15982;SDS011;14442;50.196;8.096;2023-11-19T07:30:28;0.00;;;0.00;;
15982;SDS011;14442;50.196;8.096;2023-11-19T07:32:55;0.00;;;0.00;;
15982;SDS011;14442;50.196;8.096;2023-11-19T07:35:22;0.00;;;0.00;;
15982;SDS011;14442;50.196;8.096;2023-11-19T07:37:50;0.03;;;0.03;;
15982;SDS011;14442;50.196;8.096;2023-11-19T07:40:17;0.10;;;0.10;;
15982;SDS011;14442;50.196;8.096;2023-11-19T07:42:44;0.40;;;0.07;;
15982;SDS011;14442;50.196;8.096;2023-11-19T07:45:11;0.20;;;0.10;;
15982;SDS011;14442;50.196;8.096;2023-11-19T07:47:38;0.00;;;0.00;;
15982;SDS011;14442;50.196;8.096;2023-11-19T07:50:05;0.13;;;0.00;;
15982;SDS011;14442;50.196;8.096;2023-11-19T07:52:32;0.20;;;0.10;;
15982;SDS011;14442;50.196;8.096;2023-11-19T07:55:00;0.00;;;0.00;;
15982;SDS011;14442;50.196;8.096;2023-11-19T07:57:27;0.00;;;0.00;;
15982;SDS011;14442;50.196;8.096;2023-11-19T07:59:55;0.10;;;0.10;;
15982;SDS011;14442;50.196;8.096;2023-11-19T08:02:22;0.30;;;0.10;;
15982;SDS011;14442;50.196;8.096;2023-11-19T08:04:49;0.10;;;0.10;;
15982;SDS011;14442;50.196;8.096;2023-11-19T08:07:17;0.10;;;0.10;;
15982;SDS011;14442;50.196;8.096;2023-11-19T08:09:44;0.10;;;0.00;;
15982;SDS011;14442;50.196;8.096;2023-11-19T08:12:12;0.00;;;0.00;;
15982;SDS011;14442;50.196;8.096;2023-11-19T08:14:39;0.10;;;0.10;;
15982;SDS011;14442;50.196;8.096;2023-11-19T08:17:06;0.50;;;0.20;;
15982;SDS011;14442;50.196;8.096;2023-11-19T08:19:33;0.10;;;0.10;;
15982;SDS011;14442;50.196;8.096;2023-11-19T08:21:59;0.03;;;0.00;;
15982;SDS011;14442;50.196;8.096;2023-11-19T08:24:27;0.10;;;0.00;;
15982;SDS011;14442;50.196;8.096;2023-11-19T08:26:54;0.00;;;0.00;;
15982;SDS011;14442;50.196;8.096;2023-11-19T08:29:22;0.10;;;0.10;;
15982;SDS011;14442;50.196;8.096;2023-11-19T08:31:49;0.43;;;0.10;;
15982;SDS011;14442;50.196;8.096;2023-11-19T08:34:16;0.40;;;0.10;;
15982;SDS011;14442;50.196;8.096;2023-11-19T08:36:43;0.70;;;0.10;;
15982;SDS011;14442;50.196;8.096;2023-11-19T08:39:09;0.10;;;0.10;;
15982;SDS011;14442;50.196;8.096;2023-11-19T08:41:36;0.10;;;0.10;;
15982;SDS011;14442;50.196;8.096;2023-11-19T08:44:05;0.10;;;0.10;;
15982;SDS011;14442;50.196;8.096;2023-11-19T08:46:33;1.87;;;0.30;;
15982;SDS011;14442;50.196;8.096;2023-11-19T08:49:00;0.50;;;0.10;;
15982;SDS011;14442;50.196;8.096;2023-11-19T08:51:26;0.10;;;0.10;;
15982;SDS011;14442;50.196;8.096;2023-11-19T08:53:53;0.90;;;0.10;;
15982;SDS011;14442;50.196;8.096;2023-11-19T08:56:20;0.50;;;0.10;;
15982;SDS011;14442;50.196;8.096;2023-11-19T08:58:47;0.80;;;0.20;;
15982;SDS011;14442;50.196;8.096;2023-11-19T09:01:14;2.03;;;0.20;;
15982;SDS011;14442;50.196;8.096;2023-11-19T09:03:42;0.57;;;0.40;;
15982;SDS011;14442;50.196;8.096;2023-11-19T09:06:08;1.40;;;0.20;;
15982;SDS011;14442;50.196;8.096;2023-11-19T09:08:35;0.57;;;0.10;;
15982;SDS011;14442;50.196;8.096;2023-11-19T09:11:06;0.40;;;0.20;;
15982;SDS011;14442;50.196;8.096;2023-11-19T09:13:33;0.97;;;0.13;;
15982;SDS011;14442;50.196;8.096;2023-11-19T09:16:00;2.17;;;0.30;;
15982;SDS011;14442;50.196;8.096;2023-11-19T09:18:29;1.27;;;0.30;;
15982;SDS011;14442;50.196;8.096;2023-11-19T09:20:58;0.80;;;0.20;;
15982;SDS011;14442;50.196;8.096;2023-11-19T09:23:25;0.50;;;0.20;;
15982;SDS011;14442;50.196;8.096;2023-11-19T09:25:52;1.40;;;0.30;;
15982;SDS011;14442;50.196;8.096;2023-11-19T09:28:19;3.57;;;0.90;;
15982;SDS011;14442;50.196;8.096;2023-11-19T09:30:46;7.87;;;0.97;;
15982;SDS011;14442;50.196;8.096;2023-11-19T09:33:13;3.17;;;0.53;;
15982;SDS011;14442;50.196;8.096;2023-11-19T09:35:40;5.60;;;0.50;;
15982;SDS011;14442;50.196;8.096;2023-11-19T09:38:08;3.70;;;0.43;;
15982;SDS011;14442;50.196;8.096;2023-11-19T09:40:34;3.80;;;0.47;;
15982;SDS011;14442;50.196;8.096;2023-11-19T09:43:03;5.17;;;0.50;;
15982;SDS011;14442;50.196;8.096;2023-11-19T09:45:30;4.67;;;0.70;;
15982;SDS011;14442;50.196;8.096;2023-11-19T09:48:06;4.73;;;0.50;;
15982;SDS011;14442;50.196;8.096;2023-11-19T09:50:34;5.40;;;0.47;;
15982;SDS011;14442;50.196;8.096;2023-11-19T09:53:01;1.87;;;0.97;;
15982;SDS011;14442;50.196;8.096;2023-11-19T09:55:29;3.93;;;0.50;;
15982;SDS011;14442;50.196;8.096;2023-11-19T09:57:56;2.13;;;0.77;;
15982;SDS011;14442;50.196;8.096;2023-11-19T10:00:26;3.30;;;1.03;;
15982;SDS011;14442;50.196;8.096;2023-11-19T10:02:53;2.03;;;0.60;;
15982;SDS011;14442;50.196;8.096;2023-11-19T10:05:22;2.20;;;0.67;;
15982;SDS011;14442;50.196;8.096;2023-11-19T10:07:51;4.97;;;0.80;;
15982;SDS011;14442;50.196;8.096;2023-11-19T10:10:18;4.77;;;0.67;;
15982;SDS011;14442;50.196;8.096;2023-11-19T10:12:46;1.83;;;0.40;;
15982;SDS011;14442;50.196;8.096;2023-11-19T10:15:16;2.23;;;0.60;;
15982;SDS011;14442;50.196;8.096;2023-11-19T10:17:46;3.73;;;0.63;;
15982;SDS011;14442;50.196;8.096;2023-11-19T10:20:13;4.27;;;0.80;;
15982;SDS011;14442;50.196;8.096;2023-11-19T10:22:40;5.27;;;1.00;;
15982;SDS011;14442;50.196;8.096;2023-11-19T10:25:08;1.43;;;0.40;;
15982;SDS011;14442;50.196;8.096;2023-11-19T10:27:49;1.63;;;0.37;;
15982;SDS011;14442;50.196;8.096;2023-11-19T10:30:17;1.40;;;0.30;;
15982;SDS011;14442;50.196;8.096;2023-11-19T10:32:44;3.80;;;0.93;;
15982;SDS011;14442;50.196;8.096;2023-11-19T10:35:11;2.10;;;0.50;;
15982;SDS011;14442;50.196;8.096;2023-11-19T10:37:38;2.53;;;0.83;;
15982;SDS011;14442;50.196;8.096;2023-11-19T10:40:06;2.07;;;0.43;;
15982;SDS011;14442;50.196;8.096;2023-11-19T10:42:35;0.70;;;0.40;;
15982;SDS011;14442;50.196;8.096;2023-11-19T10:45:04;1.60;;;0.83;;
15982;SDS011;14442;50.196;8.096;2023-11-19T10:47:32;2.23;;;0.60;;
15982;SDS011;14442;50.196;8.096;2023-11-19T10:50:00;0.80;;;0.40;;
15982;SDS011;14442;50.196;8.096;2023-11-19T10:52:27;3.73;;;0.80;;
15982;SDS011;14442;50.196;8.096;2023-11-19T10:54:54;2.23;;;0.57;;
15982;SDS011;14442;50.196;8.096;2023-11-19T10:57:26;3.17;;;0.73;;
15982;SDS011;14442;50.196;8.096;2023-11-19T11:00:00;2.90;;;0.57;;
15982;SDS011;14442;50.196;8.096;2023-11-19T11:02:30;3.13;;;0.60;;
15982;SDS011;14442;50.196;8.096;2023-11-19T11:05:01;2.23;;;0.50;;
15982;SDS011;14442;50.196;8.096;2023-11-19T11:07:28;1.43;;;0.63;;
15982;SDS011;14442;50.196;8.096;2023-11-19T11:09:57;3.13;;;0.97;;
15982;SDS011;14442;50.196;8.096;2023-11-19T11:12:25;1.00;;;0.40;;
15982;SDS011;14442;50.196;8.096;2023-11-19T11:14:52;2.80;;;0.60;;
15982;SDS011;14442;50.196;8.096;2023-11-19T11:17:20;2.77;;;0.50;;
15982;SDS011;14442;50.196;8.096;2023-11-19T11:19:53;2.00;;;0.93;;
15982;SDS011;14442;50.196;8.096;2023-11-19T11:22:20;2.07;;;0.50;;
15982;SDS011;14442;50.196;8.096;2023-11-19T11:25:08;2.20;;;0.50;;
15982;SDS011;14442;50.196;8.096;2023-11-19T11:27:48;2.07;;;0.83;;
15982;SDS011;14442;50.196;8.096;2023-11-19T11:30:28;2.67;;;0.60;;
15982;SDS011;14442;50.196;8.096;2023-11-19T11:33:04;1.73;;;0.40;;
15982;SDS011;14442;50.196;8.096;2023-11-19T11:35:44;1.53;;;0.67;;
15982;SDS011;14442;50.196;8.096;2023-11-19T11:38:21;3.60;;;0.77;;
15982;SDS011;14442;50.196;8.096;2023-11-19T11:43:44;3.77;;;0.73;;
15982;SDS011;14442;50.196;8.096;2023-11-19T11:49:11;5.03;;;0.80;;
15982;SDS011;14442;50.196;8.096;2023-11-19T11:54:32;3.70;;;0.60;;
15982;SDS011;14442;50.196;8.096;2023-11-19T11:57:03;2.83;;;0.97;;
15982;SDS011;14442;50.196;8.096;2023-11-19T11:59:36;3.33;;;0.90;;
15982;SDS011;14442;50.196;8.096;2023-11-19T12:02:04;1.67;;;0.77;;
15982;SDS011;14442;50.196;8.096;2023-11-19T12:04:34;2.07;;;0.70;;
15982;SDS011;14442;50.196;8.096;2023-11-19T12:07:05;2.53;;;0.57;;
15982;SDS011;14442;50.196;8.096;2023-11-19T12:09:33;6.77;;;1.00;;
15982;SDS011;14442;50.196;8.096;2023-11-19T12:12:12;5.10;;;0.80;;
15982;SDS011;14442;50.196;8.096;2023-11-19T12:15:00;8.27;;;1.10;;
15982;SDS011;14442;50.196;8.096;2023-11-19T12:17:36;7.40;;;1.10;;
15982;SDS011;14442;50.196;8.096;2023-11-19T12:20:09;5.77;;;0.77;;
15982;SDS011;14442;50.196;8.096;2023-11-19T12:22:38;3.73;;;0.90;;
15982;SDS011;14442;50.196;8.096;2023-11-19T12:25:06;2.57;;;1.17;;
15982;SDS011;14442;50.196;8.096;2023-11-19T12:27:33;4.70;;;1.10;;
15982;SDS011;14442;50.196;8.096;2023-11-19T12:30:00;3.37;;;1.27;;
15982;SDS011;14442;50.196;8.096;2023-11-19T12:32:36;3.77;;;1.17;;
15982;SDS011;14442;50.196;8.096;2023-11-19T12:35:04;2.83;;;1.03;;
15982;SDS011;14442;50.196;8.096;2023-11-19T12:37:31;4.07;;;1.33;;
15982;SDS011;14442;50.196;8.096;2023-11-19T12:39:59;4.03;;;1.00;;
15982;SDS011;14442;50.196;8.096;2023-11-19T12:42:34;4.13;;;1.37;;
15982;SDS011;14442;50.196;8.096;2023-11-19T12:45:02;4.87;;;1.53;;
15982;SDS011;14442;50.196;8.096;2023-11-19T12:47:29;3.77;;;1.20;;
15982;SDS011;14442;50.196;8.096;2023-11-19T12:49:56;4.70;;;1.27;;
15982;SDS011;14442;50.196;8.096;2023-11-19T12:52:22;3.47;;;0.93;;
15982;SDS011;14442;50.196;8.096;2023-11-19T12:54:49;3.13;;;1.07;;
15982;SDS011;14442;50.196;8.096;2023-11-19T12:57:18;4.97;;;1.20;;
15982;SDS011;14442;50.196;8.096;2023-11-19T12:59:54;3.23;;;1.00;;
15982;SDS011;14442;50.196;8.096;2023-11-19T13:02:21;3.43;;;1.27;;
15982;SDS011;14442;50.196;8.096;2023-11-19T13:04:49;2.13;;;0.70;;
15982;SDS011;14442;50.196;8.096;2023-11-19T13:07:20;5.67;;;1.13;;
15982;SDS011;14442;50.196;8.096;2023-11-19T13:09:47;4.80;;;1.63;;
15982;SDS011;14442;50.196;8.096;2023-11-19T13:12:14;5.20;;;2.63;;
15982;SDS011;14442;50.196;8.096;2023-11-19T13:14:43;4.33;;;2.17;;
15982;SDS011;14442;50.196;8.096;2023-11-19T13:17:14;4.90;;;1.97;;
15982;SDS011;14442;50.196;8.096;2023-11-19T13:19:41;3.33;;;1.57;;
15982;SDS011;14442;50.196;8.096;2023-11-19T13:22:08;3.90;;;1.50;;
15982;SDS011;14442;50.196;8.096;2023-11-19T13:24:35;5.73;;;1.63;;
15982;SDS011;14442;50.196;8.096;2023-11-19T13:27:02;3.40;;;1.40;;
15982;SDS011;14442;50.196;8.096;2023-11-19T13:29:29;5.27;;;1.33;;
15982;SDS011;14442;50.196;8.096;2023-11-19T13:31:57;2.93;;;0.90;;
15982;SDS011;14442;50.196;8.096;2023-11-19T13:34:25;5.23;;;1.47;;
15982;SDS011;14442;50.196;8.096;2023-11-19T13:36:51;3.80;;;1.67;;
15982;SDS011;14442;50.196;8.096;2023-11-19T13:39:18;4.50;;;1.13;;
15982;SDS011;14442;50.196;8.096;2023-11-19T13:41:48;5.63;;;1.40;;
15982;SDS011;14442;50.196;8.096;2023-11-19T13:44:15;2.73;;;1.40;;
15982;SDS011;14442;50.196;8.096;2023-11-19T13:46:44;3.50;;;1.00;;
15982;SDS011;14442;50.196;8.096;2023-11-19T13:49:12;4.90;;;1.10;;
15982;SDS011;14442;50.196;8.096;2023-11-19T13:51:38;4.53;;;1.40;;
15982;SDS011;14442;50.196;8.096;2023-11-19T13:54:05;8.03;;;1.37;;
15982;SDS011;14442;50.196;8.096;2023-11-19T13:56:32;6.80;;;1.20;;
15982;SDS011;14442;50.196;8.096;2023-11-19T13:58:59;5.97;;;1.40;;
15982;SDS011;14442;50.196;8.096;2023-11-19T14:01:25;7.83;;;1.70;;
15982;SDS011;14442;50.196;8.096;2023-11-19T14:03:52;5.30;;;1.00;;
15982;SDS011;14442;50.196;8.096;2023-11-19T14:06:20;3.60;;;1.27;;
15982;SDS011;14442;50.196;8.096;2023-11-19T14:08:47;4.80;;;1.03;;
15982;SDS011;14442;50.196;8.096;2023-11-19T14:11:14;5.00;;;1.33;;
15982;SDS011;14442;50.196;8.096;2023-11-19T14:13:41;3.77;;;0.97;;
15982;SDS011;14442;50.196;8.096;2023-11-19T14:16:08;2.27;;;0.73;;
15982;SDS011;14442;50.196;8.096;2023-11-19T14:18:36;1.40;;;0.80;;
15982;SDS011;14442;50.196;8.096;2023-11-19T14:21:03;9.47;;;1.40;;
15982;SDS011;14442;50.196;8.096;2023-11-19T14:23:31;7.73;;;1.33;;
15982;SDS011;14442;50.196;8.096;2023-11-19T14:25:58;8.57;;;1.50;;
15982;SDS011;14442;50.196;8.096;2023-11-19T14:28:25;5.93;;;1.30;;
15982;SDS011;14442;50.196;8.096;2023-11-19T14:30:52;7.40;;;1.30;;
15982;SDS011;14442;50.196;8.096;2023-11-19T14:33:21;8.00;;;1.20;;
15982;SDS011;14442;50.196;8.096;2023-11-19T14:35:48;3.20;;;0.93;;
15982;SDS011;14442;50.196;8.096;2023-11-19T14:38:15;5.37;;;1.10;;
15982;SDS011;14442;50.196;8.096;2023-11-19T14:40:43;4.60;;;1.10;;
15982;SDS011;14442;50.196;8.096;2023-11-19T14:43:10;3.70;;;0.93;;
15982;SDS011;14442;50.196;8.096;2023-11-19T14:45:37;3.70;;;1.30;;
15982;SDS011;14442;50.196;8.096;2023-11-19T14:48:04;5.73;;;1.07;;
15982;SDS011;14442;50.196;8.096;2023-11-19T14:50:31;6.10;;;1.27;;
15982;SDS011;14442;50.196;8.096;2023-11-19T14:52:57;5.23;;;1.27;;
15982;SDS011;14442;50.196;8.096;2023-11-19T14:55:24;5.17;;;1.20;;
15982;SDS011;14442;50.196;8.096;2023-11-19T14:57:52;3.70;;;0.77;;
15982;SDS011;14442;50.196;8.096;2023-11-19T15:00:19;6.60;;;0.70;;
15982;SDS011;14442;50.196;8.096;2023-11-19T15:02:46;4.50;;;0.80;;